sensor_id;sensor_type;location;lat;lon;timestamp;pressure;altitude;pressure_sealevel;temperature;humidity
38852;BME280;24605;50.092;9.182;2023-05-08T00:02:09;98255.91;;;14.02;100.00
38852;BME280;24605;50.092;9.182;2023-05-08T00:04:36;98257.78;;;14.08;100.00
38852;BME280;24605;50.092;9.182;2023-05-08T00:07:02;98249.78;;;14.02;100.00
38852;BME280;24605;50.092;9.182;2023-05-08T00:09:30;98248.88;;;14.09;100.00
38852;BME280;24605;50.092;9.182;2023-05-08T00:11:56;98241.88;;;14.17;100.00
38852;BME280;24605;50.092;9.182;2023-05-08T00:14:23;98248.97;;;14.16;100.00
38852;BME280;24605;50.092;9.182;2023-05-08T00:16:49;98252.81;;;14.14;100.00
38852;BME280;24605;50.092;9.182;2023-05-08T00:19:16;98242.81;;;14.09;100.00
38852;BME280;24605;50.092;9.182;2023-05-08T00:21:42;98248.63;;;14.04;100.00
38852;BME280;24605;50.092;9.182;2023-05-08T00:24:09;98248.53;;;14.13;100.00
38852;BME280;24605;50.092;9.182;2023-05-08T00:26:37;98244.44;;;14.10;100.00
38852;BME280;24605;50.092;9.182;2023-05-08T00:29:03;98239.09;;;13.88;100.00
38852;BME280;24605;50.092;9.182;2023-05-08T00:31:29;98249.53;;;13.97;100.00
38852;BME280;24605;50.092;9.182;2023-05-08T00:33:56;98232.47;;;13.92;100.00
38852;BME280;24605;50.092;9.182;2023-05-08T00:36:22;98245.66;;;13.92;100.00
38852;BME280;24605;50.092;9.182;2023-05-08T00:38:49;98241.97;;;13.93;100.00
38852;BME280;24605;50.092;9.182;2023-05-08T00:41:15;98248.44;;;13.91;100.00
38852;BME280;24605;50.092;9.182;2023-05-08T00:43:43;98247.72;;;13.52;100.00
38852;BME280;24605;50.092;9.182;2023-05-08T00:46:10;98196.31;;;13.41;100.00
38852;BME280;24605;50.092;9.182;2023-05-08T00:48:38;98243.91;;;13.70;100.00
38852;BME280;24605;50.092;9.182;2023-05-08T00:51:07;98241.00;;;13.65;100.00
38852;BME280;24605;50.092;9.182;2023-05-08T00:53:38;98240.28;;;13.71;100.00
38852;BME280;24605;50.092;9.182;2023-05-08T00:56:05;98237.00;;;13.69;100.00
38852;BME280;24605;50.092;9.182;2023-05-08T00:58:35;98242.09;;;13.55;100.00
38852;BME280;24605;50.092;9.182;2023-05-08T01:01:03;98243.00;;;13.62;100.00
38852;BME280;24605;50.092;9.182;2023-05-08T01:03:31;98245.63;;;13.47;100.00
38852;BME280;24605;50.092;9.182;2023-05-08T01:05:58;98249.78;;;13.42;100.00
38852;BME280;24605;50.092;9.182;2023-05-08T01:08:25;98252.66;;;13.32;100.00
38852;BME280;24605;50.092;9.182;2023-05-08T01:11:05;98248.19;;;13.32;100.00
38852;BME280;24605;50.092;9.182;2023-05-08T01:13:46;98247.06;;;13.50;100.00
38852;BME280;24605;50.092;9.182;2023-05-08T01:16:22;98253.91;;;13.36;100.00
38852;BME280;24605;50.092;9.182;2023-05-08T01:18:57;98253.75;;;13.38;100.00
38852;BME280;24605;50.092;9.182;2023-05-08T01:21:30;98257.69;;;13.42;100.00
38852;BME280;24605;50.092;9.182;2023-05-08T01:24:06;98257.53;;;13.58;100.00
38852;BME280;24605;50.092;9.182;2023-05-08T01:27:13;98239.53;;;13.62;100.00
38852;BME280;24605;50.092;9.182;2023-05-08T01:30:16;98262.34;;;13.16;100.00
38852;BME280;24605;50.092;9.182;2023-05-08T01:32:50;98260.00;;;13.60;100.00
38852;BME280;24605;50.092;9.182;2023-05-08T01:35:23;98261.44;;;13.62;100.00
38852;BME280;24605;50.092;9.182;2023-05-08T01:37:57;98267.59;;;13.55;100.00
38852;BME280;24605;50.092;9.182;2023-05-08T01:40:31;98262.00;;;13.73;100.00
38852;BME280;24605;50.092;9.182;2023-05-08T01:43:07;98270.25;;;13.55;100.00
38852;BME280;24605;50.092;9.182;2023-05-08T01:45:38;98272.06;;;13.54;100.00
38852;BME280;24605;50.092;9.182;2023-05-08T01:48:10;98271.63;;;13.66;100.00
38852;BME280;24605;50.092;9.182;2023-05-08T01:50:43;98267.16;;;13.66;100.00
38852;BME280;24605;50.092;9.182;2023-05-08T01:53:27;98220.22;;;13.31;100.00
38852;BME280;24605;50.092;9.182;2023-05-08T01:55:56;98266.09;;;13.37;100.00
38852;BME280;24605;50.092;9.182;2023-05-08T01:58:23;98267.53;;;13.48;100.00
38852;BME280;24605;50.092;9.182;2023-05-08T02:00:51;98269.13;;;13.49;100.00
38852;BME280;24605;50.092;9.182;2023-05-08T02:03:21;98271.16;;;13.47;100.00
38852;BME280;24605;50.092;9.182;2023-05-08T02:05:49;98274.38;;;13.34;100.00
38852;BME280;24605;50.092;9.182;2023-05-08T02:08:17;98270.69;;;13.20;100.00
38852;BME280;24605;50.092;9.182;2023-05-08T02:10:46;98270.78;;;13.12;100.00
38852;BME280;24605;50.092;9.182;2023-05-08T02:13:14;98251.25;;;12.83;100.00
38852;BME280;24605;50.092;9.182;2023-05-08T02:15:44;98275.72;;;13.07;100.00
38852;BME280;24605;50.092;9.182;2023-05-08T02:18:13;98273.47;;;13.04;100.00
38852;BME280;24605;50.092;9.182;2023-05-08T02:20:42;98269.13;;;12.88;100.00
38852;BME280;24605;50.092;9.182;2023-05-08T02:23:09;98277.66;;;12.66;100.00
38852;BME280;24605;50.092;9.182;2023-05-08T02:25:37;98285.63;;;12.81;100.00
38852;BME280;24605;50.092;9.182;2023-05-08T02:28:05;98264.50;;;12.66;100.00
38852;BME280;24605;50.092;9.182;2023-05-08T02:30:32;98287.06;;;12.61;100.00
38852;BME280;24605;50.092;9.182;2023-05-08T02:33:00;98286.56;;;12.65;100.00
38852;BME280;24605;50.092;9.182;2023-05-08T02:35:27;98291.88;;;12.80;100.00
38852;BME280;24605;50.092;9.182;2023-05-08T02:37:58;98286.38;;;12.67;100.00
38852;BME280;24605;50.092;9.182;2023-05-08T02:40:27;98283.69;;;12.75;100.00
38852;BME280;24605;50.092;9.182;2023-05-08T02:42:54;98288.25;;;12.58;100.00
38852;BME280;24605;50.092;9.182;2023-05-08T02:45:22;98271.69;;;12.73;100.00
38852;BME280;24605;50.092;9.182;2023-05-08T02:47:58;98290.38;;;12.86;100.00
38852;BME280;24605;50.092;9.182;2023-05-08T02:50:28;98290.44;;;12.78;100.00
38852;BME280;24605;50.092;9.182;2023-05-08T02:53:02;98296.47;;;12.55;100.00
38852;BME280;24605;50.092;9.182;2023-05-08T02:55:33;98292.09;;;12.70;100.00
38852;BME280;24605;50.092;9.182;2023-05-08T02:58:07;98295.63;;;12.63;100.00
38852;BME280;24605;50.092;9.182;2023-05-08T03:00:42;98292.09;;;12.70;100.00
38852;BME280;24605;50.092;9.182;2023-05-08T03:03:14;98295.16;;;12.82;100.00
38852;BME280;24605;50.092;9.182;2023-05-08T03:05:46;98294.22;;;12.75;100.00
38852;BME280;24605;50.092;9.182;2023-05-08T03:08:18;98293.97;;;12.62;100.00
38852;BME280;24605;50.092;9.182;2023-05-08T03:10:48;98292.78;;;12.64;100.00
38852;BME280;24605;50.092;9.182;2023-05-08T03:13:18;98277.66;;;12.66;100.00
38852;BME280;24605;50.092;9.182;2023-05-08T03:15:46;98281.25;;;12.42;100.00
38852;BME280;24605;50.092;9.182;2023-05-08T03:18:18;98297.97;;;12.49;100.00
38852;BME280;24605;50.092;9.182;2023-05-08T03:20:46;98297.16;;;12.49;100.00
38852;BME280;24605;50.092;9.182;2023-05-08T03:23:14;98297.81;;;12.51;100.00
38852;BME280;24605;50.092;9.182;2023-05-08T03:25:43;98295.63;;;12.63;100.00
38852;BME280;24605;50.092;9.182;2023-05-08T03:28:10;98292.28;;;12.69;100.00
38852;BME280;24605;50.092;9.182;2023-05-08T03:30:39;98290.34;;;12.63;100.00
38852;BME280;24605;50.092;9.182;2023-05-08T03:33:07;98300.56;;;12.58;100.00
38852;BME280;24605;50.092;9.182;2023-05-08T03:35:35;98296.19;;;12.50;100.00
38852;BME280;24605;50.092;9.182;2023-05-08T03:38:02;98294.06;;;12.45;100.00
38852;BME280;24605;50.092;9.182;2023-05-08T03:40:29;98301.84;;;12.30;100.00
38852;BME280;24605;50.092;9.182;2023-05-08T03:42:57;98299.88;;;12.32;100.00
38852;BME280;24605;50.092;9.182;2023-05-08T03:45:26;98295.94;;;12.28;100.00
38852;BME280;24605;50.092;9.182;2023-05-08T03:47:53;98299.59;;;12.19;100.00
38852;BME280;24605;50.092;9.182;2023-05-08T03:50:21;98294.69;;;12.16;100.00
38852;BME280;24605;50.092;9.182;2023-05-08T03:52:49;98294.19;;;12.12;100.00
38852;BME280;24605;50.092;9.182;2023-05-08T03:55:15;98292.69;;;12.18;100.00
38852;BME280;24605;50.092;9.182;2023-05-08T03:57:47;98296.63;;;12.22;100.00
38852;BME280;24605;50.092;9.182;2023-05-08T04:00:21;98290.53;;;12.21;100.00
38852;BME280;24605;50.092;9.182;2023-05-08T04:02:55;98300.13;;;12.06;100.00
38852;BME280;24605;50.092;9.182;2023-05-08T04:05:27;98294.72;;;12.07;100.00
38852;BME280;24605;50.092;9.182;2023-05-08T04:07:58;98265.81;;;11.99;100.00
38852;BME280;24605;50.092;9.182;2023-05-08T04:10:31;98302.06;;;12.20;100.00
38852;BME280;24605;50.092;9.182;2023-05-08T04:13:02;98298.88;;;12.33;100.00
38852;BME280;24605;50.092;9.182;2023-05-08T04:15:34;98305.47;;;12.29;100.00
38852;BME280;24605;50.092;9.182;2023-05-08T04:18:05;98298.75;;;12.27;100.00
38852;BME280;24605;50.092;9.182;2023-05-08T04:20:34;98307.59;;;12.34;100.00
38852;BME280;24605;50.092;9.182;2023-05-08T04:23:03;98304.94;;;12.34;100.00
38852;BME280;24605;50.092;9.182;2023-05-08T04:25:32;98305.06;;;12.49;100.00
38852;BME280;24605;50.092;9.182;2023-05-08T04:28:00;98305.75;;;12.43;100.00
38852;BME280;24605;50.092;9.182;2023-05-08T04:30:27;98288.63;;;12.47;100.00
38852;BME280;24605;50.092;9.182;2023-05-08T04:32:56;98310.88;;;12.36;100.00
38852;BME280;24605;50.092;9.182;2023-05-08T04:35:23;98312.84;;;12.34;100.00
38852;BME280;24605;50.092;9.182;2023-05-08T04:37:50;98315.25;;;12.44;100.00
38852;BME280;24605;50.092;9.182;2023-05-08T04:40:16;98312.69;;;12.27;100.00
38852;BME280;24605;50.092;9.182;2023-05-08T04:42:43;98316.06;;;12.13;100.00
38852;BME280;24605;50.092;9.182;2023-05-08T04:45:11;98316.97;;;12.28;100.00
38852;BME280;24605;50.092;9.182;2023-05-08T04:47:38;98321.59;;;12.18;100.00
38852;BME280;24605;50.092;9.182;2023-05-08T04:50:06;98321.13;;;12.54;100.00
38852;BME280;24605;50.092;9.182;2023-05-08T04:52:33;98322.03;;;12.38;100.00
38852;BME280;24605;50.092;9.182;2023-05-08T04:55:00;98324.41;;;12.56;100.00
38852;BME280;24605;50.092;9.182;2023-05-08T04:57:26;98331.69;;;12.46;100.00
38852;BME280;24605;50.092;9.182;2023-05-08T04:59:53;98325.56;;;12.14;100.00
38852;BME280;24605;50.092;9.182;2023-05-08T05:02:19;98329.81;;;12.23;100.00
38852;BME280;24605;50.092;9.182;2023-05-08T05:04:46;98340.19;;;12.16;100.00
38852;BME280;24605;50.092;9.182;2023-05-08T05:07:14;98346.47;;;12.47;100.00
38852;BME280;24605;50.092;9.182;2023-05-08T05:09:43;98345.81;;;12.45;100.00
38852;BME280;24605;50.092;9.182;2023-05-08T05:12:09;98348.28;;;12.46;100.00
38852;BME280;24605;50.092;9.182;2023-05-08T05:14:36;98359.91;;;12.52;100.00
38852;BME280;24605;50.092;9.182;2023-05-08T05:17:02;98357.97;;;12.46;100.00
38852;BME280;24605;50.092;9.182;2023-05-08T05:19:29;98358.47;;;12.49;100.00
38852;BME280;24605;50.092;9.182;2023-05-08T05:21:55;98364.66;;;12.57;100.00
38852;BME280;24605;50.092;9.182;2023-05-08T05:24:23;98360.28;;;12.49;100.00
38852;BME280;24605;50.092;9.182;2023-05-08T05:26:50;98354.66;;;12.83;100.00
38852;BME280;24605;50.092;9.182;2023-05-08T05:29:16;98364.63;;;12.96;100.00
38852;BME280;24605;50.092;9.182;2023-05-08T05:31:43;98363.53;;;13.14;100.00
38852;BME280;24605;50.092;9.182;2023-05-08T05:34:09;98361.25;;;13.11;100.00
38852;BME280;24605;50.092;9.182;2023-05-08T05:36:36;98367.47;;;13.18;100.00
38852;BME280;24605;50.092;9.182;2023-05-08T05:39:03;98368.00;;;13.13;100.00
38852;BME280;24605;50.092;9.182;2023-05-08T05:41:30;98368.53;;;13.32;100.00
38852;BME280;24605;50.092;9.182;2023-05-08T05:43:58;98371.59;;;13.44;100.00
38852;BME280;24605;50.092;9.182;2023-05-08T05:46:24;98366.91;;;13.54;100.00
38852;BME280;24605;50.092;9.182;2023-05-08T05:48:56;98373.31;;;13.28;100.00
38852;BME280;24605;50.092;9.182;2023-05-08T05:51:22;98374.56;;;13.41;100.00
38852;BME280;24605;50.092;9.182;2023-05-08T05:53:49;98377.13;;;13.49;100.00
38852;BME280;24605;50.092;9.182;2023-05-08T05:56:15;98374.81;;;13.54;100.00
38852;BME280;24605;50.092;9.182;2023-05-08T05:58:43;98373.94;;;13.39;100.00
38852;BME280;24605;50.092;9.182;2023-05-08T06:01:09;98372.44;;;13.59;100.00
38852;BME280;24605;50.092;9.182;2023-05-08T06:03:36;98377.22;;;13.79;100.00
38852;BME280;24605;50.092;9.182;2023-05-08T06:06:03;98376.03;;;13.82;100.00
38852;BME280;24605;50.092;9.182;2023-05-08T06:08:29;98374.69;;;13.86;100.00
38852;BME280;24605;50.092;9.182;2023-05-08T06:10:56;98377.88;;;13.81;100.00
38852;BME280;24605;50.092;9.182;2023-05-08T06:13:22;98382.16;;;13.59;100.00
38852;BME280;24605;50.092;9.182;2023-05-08T06:15:53;98385.41;;;13.99;100.00
38852;BME280;24605;50.092;9.182;2023-05-08T06:18:20;98377.72;;;14.13;100.00
38852;BME280;24605;50.092;9.182;2023-05-08T06:20:47;98387.91;;;14.31;100.00
38852;BME280;24605;50.092;9.182;2023-05-08T06:23:13;98390.06;;;13.97;100.00
38852;BME280;24605;50.092;9.182;2023-05-08T06:25:40;98384.91;;;14.49;100.00
38852;BME280;24605;50.092;9.182;2023-05-08T06:28:06;98377.16;;;14.47;100.00
38852;BME280;24605;50.092;9.182;2023-05-08T06:30:33;98390.44;;;14.39;100.00
38852;BME280;24605;50.092;9.182;2023-05-08T06:33:00;98392.44;;;14.52;100.00
38852;BME280;24605;50.092;9.182;2023-05-08T06:35:27;98399.81;;;14.71;100.00
38852;BME280;24605;50.092;9.182;2023-05-08T06:37:53;98390.94;;;14.94;100.00
38852;BME280;24605;50.092;9.182;2023-05-08T06:40:20;98403.13;;;14.95;100.00
38852;BME280;24605;50.092;9.182;2023-05-08T06:42:47;98391.78;;;14.65;100.00
38852;BME280;24605;50.092;9.182;2023-05-08T06:45:14;98389.25;;;14.71;100.00
38852;BME280;24605;50.092;9.182;2023-05-08T06:47:42;98389.34;;;14.63;100.00
38852;BME280;24605;50.092;9.182;2023-05-08T06:50:10;98393.63;;;14.49;100.00
38852;BME280;24605;50.092;9.182;2023-05-08T06:52:37;98390.28;;;14.40;100.00
38852;BME280;24605;50.092;9.182;2023-05-08T06:55:04;98396.25;;;14.19;100.00
38852;BME280;24605;50.092;9.182;2023-05-08T06:57:31;98396.59;;;13.86;100.00
38852;BME280;24605;50.092;9.182;2023-05-08T06:59:57;98379.66;;;13.81;100.00
38852;BME280;24605;50.092;9.182;2023-05-08T07:02:23;98395.94;;;13.84;100.00
38852;BME280;24605;50.092;9.182;2023-05-08T07:04:50;98395.09;;;13.69;100.00
38852;BME280;24605;50.092;9.182;2023-05-08T07:07:18;98408.41;;;13.52;100.00
38852;BME280;24605;50.092;9.182;2023-05-08T07:09:44;98400.16;;;13.55;100.00
38852;BME280;24605;50.092;9.182;2023-05-08T07:12:14;98397.47;;;13.32;100.00
38852;BME280;24605;50.092;9.182;2023-05-08T07:14:41;98403.28;;;13.27;100.00
38852;BME280;24605;50.092;9.182;2023-05-08T07:17:07;98391.84;;;13.43;100.00
38852;BME280;24605;50.092;9.182;2023-05-08T07:19:34;98398.72;;;13.21;100.00
38852;BME280;24605;50.092;9.182;2023-05-08T07:22:02;98394.50;;;13.12;100.00
38852;BME280;24605;50.092;9.182;2023-05-08T07:24:31;98393.19;;;13.08;100.00
38852;BME280;24605;50.092;9.182;2023-05-08T07:26:57;98393.97;;;13.16;100.00
38852;BME280;24605;50.092;9.182;2023-05-08T07:29:24;98380.91;;;13.23;100.00
38852;BME280;24605;50.092;9.182;2023-05-08T07:31:54;98402.94;;;13.30;100.00
38852;BME280;24605;50.092;9.182;2023-05-08T07:34:20;98405.97;;;13.19;100.00
38852;BME280;24605;50.092;9.182;2023-05-08T07:36:47;98380.22;;;13.29;100.00
38852;BME280;24605;50.092;9.182;2023-05-08T07:39:13;98407.06;;;13.56;100.00
38852;BME280;24605;50.092;9.182;2023-05-08T07:41:41;98406.34;;;13.62;100.00
38852;BME280;24605;50.092;9.182;2023-05-08T07:44:09;98413.84;;;13.74;100.00
38852;BME280;24605;50.092;9.182;2023-05-08T07:46:36;98399.97;;;13.57;100.00
38852;BME280;24605;50.092;9.182;2023-05-08T07:49:02;98410.22;;;13.75;100.00
38852;BME280;24605;50.092;9.182;2023-05-08T07:51:29;98422.50;;;13.98;100.00
38852;BME280;24605;50.092;9.182;2023-05-08T07:53:55;98416.97;;;14.07;100.00
38852;BME280;24605;50.092;9.182;2023-05-08T07:56:22;98419.88;;;13.98;100.00
38852;BME280;24605;50.092;9.182;2023-05-08T07:58:50;98426.75;;;14.22;100.00
38852;BME280;24605;50.092;9.182;2023-05-08T08:01:17;98423.81;;;14.17;100.00
38852;BME280;24605;50.092;9.182;2023-05-08T08:03:43;98428.75;;;14.50;100.00
38852;BME280;24605;50.092;9.182;2023-05-08T08:06:10;98436.66;;;14.65;100.00
38852;BME280;24605;50.092;9.182;2023-05-08T08:08:37;98410.09;;;14.81;100.00
38852;BME280;24605;50.092;9.182;2023-05-08T08:11:03;98433.25;;;15.16;100.00
38852;BME280;24605;50.092;9.182;2023-05-08T08:13:30;98432.69;;;15.20;100.00
38852;BME280;24605;50.092;9.182;2023-05-08T08:16:00;98433.28;;;14.86;100.00
38852;BME280;24605;50.092;9.182;2023-05-08T08:18:28;98435.72;;;15.39;100.00
38852;BME280;24605;50.092;9.182;2023-05-08T08:20:55;98429.72;;;15.30;100.00
38852;BME280;24605;50.092;9.182;2023-05-08T08:23:21;98433.06;;;15.82;100.00
38852;BME280;24605;50.092;9.182;2023-05-08T08:25:49;98433.72;;;16.13;100.00
38852;BME280;24605;50.092;9.182;2023-05-08T08:28:17;98436.53;;;16.05;100.00
38852;BME280;24605;50.092;9.182;2023-05-08T08:30:44;98442.44;;;16.35;100.00
38852;BME280;24605;50.092;9.182;2023-05-08T08:33:12;98443.56;;;16.54;100.00
38852;BME280;24605;50.092;9.182;2023-05-08T08:35:38;98440.84;;;16.41;100.00
38852;BME280;24605;50.092;9.182;2023-05-08T08:38:04;98441.03;;;16.39;100.00
38852;BME280;24605;50.092;9.182;2023-05-08T08:40:31;98427.03;;;15.89;100.00
38852;BME280;24605;50.092;9.182;2023-05-08T08:42:57;98406.50;;;16.19;100.00
38852;BME280;24605;50.092;9.182;2023-05-08T08:45:24;98427.34;;;16.29;100.00
38852;BME280;24605;50.092;9.182;2023-05-08T08:47:51;98427.78;;;16.33;100.00
38852;BME280;24605;50.092;9.182;2023-05-08T08:50:21;98425.59;;;16.43;100.00
38852;BME280;24605;50.092;9.182;2023-05-08T08:52:54;98415.81;;;16.43;100.00
38852;BME280;24605;50.092;9.182;2023-05-08T08:55:22;98417.66;;;16.43;100.00
38852;BME280;24605;50.092;9.182;2023-05-08T08:57:57;98419.00;;;16.74;100.00
38852;BME280;24605;50.092;9.182;2023-05-08T09:00:29;98427.06;;;16.52;100.00
38852;BME280;24605;50.092;9.182;2023-05-08T09:02:56;98421.88;;;16.72;100.00
38852;BME280;24605;50.092;9.182;2023-05-08T09:05:24;98418.88;;;16.89;100.00
38852;BME280;24605;50.092;9.182;2023-05-08T09:07:53;98423.09;;;16.70;100.00
38852;BME280;24605;50.092;9.182;2023-05-08T09:10:21;98424.25;;;17.02;99.52
38852;BME280;24605;50.092;9.182;2023-05-08T09:12:48;98418.63;;;17.19;97.87
38852;BME280;24605;50.092;9.182;2023-05-08T09:15:15;98422.69;;;17.21;96.56
38852;BME280;24605;50.092;9.182;2023-05-08T09:17:41;98426.31;;;17.14;97.75
38852;BME280;24605;50.092;9.182;2023-05-08T09:20:08;98428.78;;;17.09;98.14
38852;BME280;24605;50.092;9.182;2023-05-08T09:22:37;98431.88;;;17.32;96.17
38852;BME280;24605;50.092;9.182;2023-05-08T09:25:05;98441.00;;;17.16;98.70
38852;BME280;24605;50.092;9.182;2023-05-08T09:27:31;98434.66;;;17.04;99.45
38852;BME280;24605;50.092;9.182;2023-05-08T09:30:00;98430.59;;;17.15;99.22
38852;BME280;24605;50.092;9.182;2023-05-08T09:32:28;98431.47;;;17.29;99.11
38852;BME280;24605;50.092;9.182;2023-05-08T09:34:55;98406.56;;;17.23;100.00
38852;BME280;24605;50.092;9.182;2023-05-08T09:37:22;98438.47;;;17.90;97.80
38852;BME280;24605;50.092;9.182;2023-05-08T09:39:51;98432.78;;;18.20;96.03
38852;BME280;24605;50.092;9.182;2023-05-08T09:42:17;98438.50;;;18.10;95.95
38852;BME280;24605;50.092;9.182;2023-05-08T09:44:45;98440.91;;;18.32;95.77
38852;BME280;24605;50.092;9.182;2023-05-08T09:47:13;98449.44;;;18.68;94.68
38852;BME280;24605;50.092;9.182;2023-05-08T09:49:55;98451.09;;;17.75;91.53
38852;BME280;24605;50.092;9.182;2023-05-08T09:52:22;98445.19;;;17.79;100.00
38852;BME280;24605;50.092;9.182;2023-05-08T09:54:55;98445.19;;;18.33;93.71
38852;BME280;24605;50.092;9.182;2023-05-08T09:57:22;98456.78;;;18.52;94.72
38852;BME280;24605;50.092;9.182;2023-05-08T09:59:48;98455.78;;;18.53;90.55
38852;BME280;24605;50.092;9.182;2023-05-08T10:02:15;98461.53;;;18.37;92.86
38852;BME280;24605;50.092;9.182;2023-05-08T10:04:44;98461.94;;;18.47;93.44
38852;BME280;24605;50.092;9.182;2023-05-08T10:07:10;98466.69;;;19.04;92.91
38852;BME280;24605;50.092;9.182;2023-05-08T10:09:37;98464.19;;;18.43;90.06
38852;BME280;24605;50.092;9.182;2023-05-08T10:12:05;98465.50;;;18.86;92.58
38852;BME280;24605;50.092;9.182;2023-05-08T10:14:33;98469.81;;;18.81;90.20
38852;BME280;24605;50.092;9.182;2023-05-08T10:17:06;98458.50;;;19.12;90.52
38852;BME280;24605;50.092;9.182;2023-05-08T10:19:36;98466.91;;;18.95;93.56
38852;BME280;24605;50.092;9.182;2023-05-08T10:22:09;98464.47;;;19.01;90.76
38852;BME280;24605;50.092;9.182;2023-05-08T10:24:40;98456.38;;;18.62;88.02
38852;BME280;24605;50.092;9.182;2023-05-08T10:27:13;98462.19;;;19.04;92.46
38852;BME280;24605;50.092;9.182;2023-05-08T10:29:46;98467.72;;;19.03;90.32
38852;BME280;24605;50.092;9.182;2023-05-08T10:32:18;98465.78;;;19.23;88.33
38852;BME280;24605;50.092;9.182;2023-05-08T10:34:51;98463.97;;;19.56;89.34
38852;BME280;24605;50.092;9.182;2023-05-08T10:37:18;98462.34;;;19.48;87.38
38852;BME280;24605;50.092;9.182;2023-05-08T10:39:45;98466.88;;;19.02;88.77
38852;BME280;24605;50.092;9.182;2023-05-08T10:42:14;98466.69;;;19.04;87.22
38852;BME280;24605;50.092;9.182;2023-05-08T10:44:41;98466.25;;;19.07;87.35
38852;BME280;24605;50.092;9.182;2023-05-08T10:47:13;98466.47;;;19.05;88.39
38852;BME280;24605;50.092;9.182;2023-05-08T10:49:47;98458.50;;;19.44;85.89
38852;BME280;24605;50.092;9.182;2023-05-08T10:52:17;98459.75;;;19.41;84.96
38852;BME280;24605;50.092;9.182;2023-05-08T10:55:15;98455.72;;;19.32;89.08
38852;BME280;24605;50.092;9.182;2023-05-08T10:58:08;98462.06;;;20.20;86.28
38852;BME280;24605;50.092;9.182;2023-05-08T11:01:09;98452.78;;;20.48;81.58
38852;BME280;24605;50.092;9.182;2023-05-08T11:03:38;98440.38;;;19.66;84.90
38852;BME280;24605;50.092;9.182;2023-05-08T11:06:05;98453.50;;;19.61;82.76
38852;BME280;24605;50.092;9.182;2023-05-08T11:08:31;98452.72;;;19.54;84.09
38852;BME280;24605;50.092;9.182;2023-05-08T11:11:03;98448.84;;;19.56;84.87
38852;BME280;24605;50.092;9.182;2023-05-08T11:13:33;98450.25;;;19.59;84.87
38852;BME280;24605;50.092;9.182;2023-05-08T11:16:01;98446.41;;;19.80;80.98
38852;BME280;24605;50.092;9.182;2023-05-08T11:18:28;98440.34;;;19.98;82.76
38852;BME280;24605;50.092;9.182;2023-05-08T11:20:56;98444.22;;;19.70;83.47
38852;BME280;24605;50.092;9.182;2023-05-08T11:23:24;98436.34;;;19.57;83.20
38852;BME280;24605;50.092;9.182;2023-05-08T11:25:58;98411.72;;;19.94;81.78
38852;BME280;24605;50.092;9.182;2023-05-08T11:28:25;98427.97;;;19.85;81.85
38852;BME280;24605;50.092;9.182;2023-05-08T11:30:53;98440.06;;;19.81;84.16
38852;BME280;24605;50.092;9.182;2023-05-08T11:33:21;98434.50;;;19.90;81.22
38852;BME280;24605;50.092;9.182;2023-05-08T11:35:53;98441.44;;;20.34;77.81
38852;BME280;24605;50.092;9.182;2023-05-08T11:38:25;98429.25;;;20.27;74.96
38852;BME280;24605;50.092;9.182;2023-05-08T11:41:00;98434.38;;;20.65;73.21
38852;BME280;24605;50.092;9.182;2023-05-08T11:46:40;98439.00;;;21.38;69.72
38852;BME280;24605;50.092;9.182;2023-05-08T11:49:10;98429.56;;;21.54;68.75
38852;BME280;24605;50.092;9.182;2023-05-08T11:51:37;98422.44;;;21.36;69.11
38852;BME280;24605;50.092;9.182;2023-05-08T11:54:09;98419.34;;;21.93;66.98
38852;BME280;24605;50.092;9.182;2023-05-08T11:56:37;98417.34;;;22.12;63.84
38852;BME280;24605;50.092;9.182;2023-05-08T11:59:04;98427.00;;;22.01;65.55
38852;BME280;24605;50.092;9.182;2023-05-08T12:01:31;98423.81;;;21.69;66.35
38852;BME280;24605;50.092;9.182;2023-05-08T12:04:03;98426.28;;;21.40;64.90
38852;BME280;24605;50.092;9.182;2023-05-08T12:06:31;98412.97;;;21.52;68.34
38852;BME280;24605;50.092;9.182;2023-05-08T12:08:58;98414.97;;;20.95;69.56
38852;BME280;24605;50.092;9.182;2023-05-08T12:11:25;98417.56;;;20.65;71.90
38852;BME280;24605;50.092;9.182;2023-05-08T12:13:52;98416.69;;;20.71;70.26
38852;BME280;24605;50.092;9.182;2023-05-08T12:16:19;98415.38;;;20.62;71.69
38852;BME280;24605;50.092;9.182;2023-05-08T12:18:48;98421.44;;;20.69;71.47
38852;BME280;24605;50.092;9.182;2023-05-08T12:21:16;98413.44;;;20.88;69.70
38852;BME280;24605;50.092;9.182;2023-05-08T12:23:43;98414.72;;;21.16;67.54
38852;BME280;24605;50.092;9.182;2023-05-08T12:26:09;98412.09;;;21.58;66.08
38852;BME280;24605;50.092;9.182;2023-05-08T12:28:37;98407.38;;;21.96;65.07
38852;BME280;24605;50.092;9.182;2023-05-08T12:31:04;98416.84;;;21.68;64.45
38852;BME280;24605;50.092;9.182;2023-05-08T12:33:31;98412.94;;;22.30;62.89
38852;BME280;24605;50.092;9.182;2023-05-08T12:36:00;98416.31;;;22.25;61.24
38852;BME280;24605;50.092;9.182;2023-05-08T12:38:28;98427.09;;;22.66;62.08
38852;BME280;24605;50.092;9.182;2023-05-08T12:40:55;98429.19;;;23.05;58.58
38852;BME280;24605;50.092;9.182;2023-05-08T12:43:30;98417.19;;;22.66;59.75
38852;BME280;24605;50.092;9.182;2023-05-08T12:45:56;98423.75;;;22.99;59.01
38852;BME280;24605;50.092;9.182;2023-05-08T12:48:23;98418.75;;;23.49;56.47
38852;BME280;24605;50.092;9.182;2023-05-08T12:50:49;98411.56;;;23.67;54.03
38852;BME280;24605;50.092;9.182;2023-05-08T12:53:18;98415.94;;;23.73;53.75
38852;BME280;24605;50.092;9.182;2023-05-08T12:55:51;98419.81;;;22.90;56.79
38852;BME280;24605;50.092;9.182;2023-05-08T12:58:18;98414.84;;;23.11;57.36
38852;BME280;24605;50.092;9.182;2023-05-08T13:00:47;98424.53;;;23.00;57.88
38852;BME280;24605;50.092;9.182;2023-05-08T13:03:21;98416.50;;;23.58;55.07
38852;BME280;24605;50.092;9.182;2023-05-08T13:05:48;98418.88;;;23.88;54.82